createdAt,value
2022-11-13T00:29:40.940Z,0
2022-11-13T00:30:21.153Z,0
2022-11-13T00:31:01.666Z,0
2022-11-13T00:31:42.095Z,0
2022-11-13T00:32:22.568Z,0
2022-11-13T00:33:03.058Z,0
2022-11-13T00:34:46.243Z,0
2022-11-13T00:35:04.533Z,0
2022-11-13T00:35:44.944Z,0
2022-11-13T00:36:26.377Z,0
2022-11-13T00:37:05.859Z,0
2022-11-13T00:44:31.063Z,0
2022-11-13T00:45:11.700Z,0
2022-11-13T00:45:52.061Z,0
2022-11-13T00:46:32.529Z,0
2022-11-13T00:47:12.995Z,0
2022-11-13T00:47:53.462Z,0
2022-11-13T00:48:33.952Z,0
2022-11-13T00:49:14.444Z,0
2022-11-13T00:49:54.875Z,0
2022-11-13T00:50:35.362Z,0
2022-11-13T00:58:41.084Z,0
2022-11-13T00:59:21.524Z,0
2022-11-13T01:00:01.992Z,0
2022-11-13T01:00:42.800Z,0
2022-11-13T01:01:23.646Z,0
2022-11-13T01:02:04.155Z,0
2022-11-13T01:02:44.576Z,0
2022-11-13T01:03:25.055Z,0
2022-11-13T01:04:05.497Z,0
2022-11-13T01:04:46.008Z,0
2022-11-13T01:11:30.703Z,0
2022-11-13T01:12:11.142Z,0
2022-11-13T01:12:51.687Z,0
2022-11-13T01:13:32.143Z,0
2022-11-13T01:14:12.631Z,0
2022-11-13T01:14:53.093Z,0
2022-11-13T01:15:33.562Z,0
2022-11-13T01:16:54.509Z,0
2022-11-13T01:17:35.025Z,0
2022-11-13T01:18:15.497Z,0
2022-11-13T01:25:40.719Z,0
2022-11-13T01:26:21.221Z,0
2022-11-13T01:27:01.682Z,0
2022-11-13T01:27:42.152Z,0
2022-11-13T01:28:22.611Z,0
2022-11-13T01:29:03.043Z,0
2022-11-13T01:29:43.507Z,0
2022-11-13T01:30:24.003Z,0
2022-11-13T01:31:04.454Z,0
2022-11-13T01:31:45.049Z,0
2022-11-13T01:32:25.448Z,0
2022-11-13T01:33:05.874Z,0
2022-11-13T01:39:50.648Z,0
2022-11-13T01:40:31.140Z,0
2022-11-13T01:41:11.619Z,0
2022-11-13T01:41:52.109Z,0
2022-11-13T01:42:32.633Z,0
2022-11-13T01:43:13.108Z,0
2022-11-13T01:43:53.536Z,0
2022-11-13T01:47:22.505Z,0
2022-11-13T01:48:02.851Z,0
2022-11-13T01:48:43.278Z,0
2022-11-13T01:49:23.814Z,0
2022-11-13T01:52:38.648Z,0
2022-11-13T01:53:18.930Z,0
2022-11-13T01:53:59.418Z,0
2022-11-13T01:54:39.906Z,0
2022-11-13T01:55:20.361Z,0
2022-11-13T01:56:00.813Z,0
2022-11-13T01:56:41.332Z,0
2022-11-13T01:57:21.758Z,0
2022-11-13T01:58:02.233Z,0
2022-11-13T01:58:42.709Z,0
2022-11-13T01:59:23.191Z,0
2022-11-13T02:06:48.504Z,0
2022-11-13T02:07:28.936Z,0
2022-11-13T02:08:09.399Z,0
2022-11-13T02:08:49.871Z,0
2022-11-13T02:09:30.323Z,0
2022-11-13T02:10:10.824Z,0
2022-11-13T02:10:51.270Z,0
2022-11-13T02:11:31.791Z,0
2022-11-13T02:12:12.198Z,0
2022-11-13T02:12:52.695Z,0
2022-11-13T02:15:20.555Z,0
2022-11-13T02:16:01.190Z,0
2022-11-13T02:16:41.613Z,0
2022-11-13T02:17:22.074Z,0
2022-11-13T02:18:02.656Z,0
2022-11-13T02:18:43.007Z,0
2022-11-13T02:19:23.484Z,0
2022-11-13T02:20:03.977Z,0
2022-11-13T02:20:44.453Z,0
2022-11-13T02:21:24.989Z,0
2022-11-13T02:22:05.440Z,0
2022-11-13T02:28:50.325Z,0
2022-11-13T02:29:30.863Z,0
2022-11-13T02:30:15.635Z,0
2022-11-13T02:30:51.881Z,0
2022-11-13T02:31:32.399Z,0
2022-11-13T02:32:12.889Z,0
2022-11-13T02:32:53.378Z,0
2022-11-13T02:34:14.338Z,0
2022-11-13T02:34:54.804Z,0
2022-11-13T02:35:35.282Z,0
2022-11-13T02:43:00.685Z,0
2022-11-13T02:43:41.131Z,0
2022-11-13T02:44:21.621Z,0
2022-11-13T02:45:02.105Z,0
2022-11-13T02:45:42.603Z,0
2022-11-13T02:46:23.075Z,0
2022-11-13T02:47:03.576Z,0
2022-11-13T02:47:44.076Z,0
2022-11-13T02:48:24.627Z,0
2022-11-13T02:49:05.214Z,0
2022-11-13T02:56:30.318Z,0
2022-11-13T02:57:10.754Z,0
2022-11-13T02:57:51.263Z,0
2022-11-13T02:58:32.011Z,0
2022-11-13T02:59:12.222Z,0
2022-11-13T02:59:52.725Z,0
2022-11-13T03:00:33.213Z,0
2022-11-13T03:01:13.788Z,0
2022-11-13T03:01:54.287Z,0
2022-11-13T03:02:34.677Z,0
2022-11-13T03:03:21.268Z,0
2022-11-13T03:10:40.474Z,0
2022-11-13T03:11:20.927Z,0
2022-11-13T03:12:01.413Z,0
2022-11-13T03:12:41.893Z,0
2022-11-13T03:13:22.334Z,0
2022-11-13T03:14:02.796Z,0
2022-11-13T03:14:43.293Z,0
2022-11-13T03:15:23.782Z,0
2022-11-13T03:16:04.236Z,0
2022-11-13T03:16:44.710Z,0
2022-11-13T03:17:25.229Z,0
2022-11-13T03:24:50.667Z,0
2022-11-13T03:25:31.130Z,0
2022-11-13T03:26:11.615Z,0
2022-11-13T03:26:52.179Z,0
2022-11-13T03:27:32.573Z,0
2022-11-13T03:28:13.075Z,0
2022-11-13T03:28:53.543Z,0
2022-11-13T03:29:34.023Z,0
2022-11-13T03:30:14.486Z,0
2022-11-13T03:30:55.008Z,0
2022-11-13T03:34:54.549Z,0
2022-11-13T03:35:41.916Z,0
2022-11-13T03:36:15.507Z,0
2022-11-13T03:36:56.000Z,0
2022-11-13T03:37:36.445Z,0
2022-11-13T03:38:16.940Z,0
2022-11-13T03:38:57.347Z,0
2022-11-13T03:39:37.864Z,0
2022-11-13T03:40:18.348Z,0
2022-11-13T03:40:58.804Z,0
2022-11-13T03:41:39.287Z,0
2022-11-13T03:49:04.477Z,0
2022-11-13T03:49:44.952Z,0
2022-11-13T03:50:25.459Z,0
2022-11-13T03:51:06.002Z,0
2022-11-13T03:51:46.408Z,0
2022-11-13T03:52:26.863Z,0
2022-11-13T03:53:07.356Z,0
2022-11-13T03:53:47.817Z,0
2022-11-13T03:54:28.332Z,0
2022-11-13T03:55:08.748Z,0
2022-11-13T03:55:49.276Z,0
2022-11-13T04:03:14.477Z,0
2022-11-13T04:03:54.995Z,0
2022-11-13T04:04:35.476Z,0
2022-11-13T04:05:20.030Z,0
2022-11-13T04:05:56.400Z,0
2022-11-13T04:06:37.058Z,0
2022-11-13T04:07:17.379Z,0
2022-11-13T04:07:57.820Z,0
2022-11-13T04:08:38.274Z,0
2022-11-13T04:09:18.752Z,0
2022-11-13T04:09:59.238Z,0
2022-11-13T04:17:24.597Z,0
2022-11-13T04:18:05.039Z,0
2022-11-13T04:18:45.487Z,0
2022-11-13T04:19:26.006Z,0
2022-11-13T04:20:06.452Z,0
2022-11-13T04:20:46.933Z,0
2022-11-13T04:21:27.415Z,0
2022-11-13T04:22:07.931Z,0
2022-11-13T04:22:48.282Z,0
2022-11-13T04:23:28.770Z,0
2022-11-13T04:24:09.279Z,0
2022-11-13T04:31:34.637Z,0
2022-11-13T04:32:15.112Z,0
2022-11-13T04:32:55.555Z,0
2022-11-13T04:33:36.076Z,0
2022-11-13T04:34:16.564Z,0
2022-11-13T04:34:57.046Z,0
2022-11-13T04:35:37.550Z,0
2022-11-13T04:36:58.505Z,0
2022-11-13T04:37:40.717Z,0
2022-11-13T04:43:04.380Z,0
2022-11-13T04:43:44.887Z,0
2022-11-13T04:44:25.304Z,0
2022-11-13T04:45:05.920Z,0
2022-11-13T04:45:46.284Z,0
2022-11-13T04:46:26.763Z,0
2022-11-13T04:47:07.217Z,0
2022-11-13T04:47:47.727Z,0
2022-11-13T04:48:28.450Z,0
2022-11-13T04:49:49.176Z,0
2022-11-13T04:57:14.426Z,0
2022-11-13T04:57:54.897Z,0
2022-11-13T04:58:35.435Z,0
2022-11-13T04:59:15.947Z,0
2022-11-13T04:59:56.431Z,0
2022-11-13T05:00:36.967Z,0
2022-11-13T05:01:17.436Z,0
2022-11-13T05:01:57.915Z,0
2022-11-13T05:02:38.412Z,0
2022-11-13T05:03:18.862Z,0
2022-11-13T05:03:59.609Z,0
2022-11-13T05:10:44.464Z,0
2022-11-13T05:11:24.948Z,0
2022-11-13T05:12:05.463Z,0
2022-11-13T05:12:46.140Z,0
2022-11-13T05:13:26.617Z,0
2022-11-13T05:14:07.072Z,0
2022-11-13T05:14:47.565Z,0
2022-11-13T05:15:28.058Z,0
2022-11-13T05:16:08.660Z,0
2022-11-13T05:16:49.131Z,0
2022-11-13T05:22:24.248Z,0
2022-11-13T05:23:04.706Z,0
2022-11-13T05:23:45.285Z,0
2022-11-13T05:24:25.660Z,0
2022-11-13T05:25:06.154Z,0
2022-11-13T05:25:46.602Z,0
2022-11-13T05:26:27.069Z,0
2022-11-13T05:27:10.451Z,0
2022-11-13T05:27:48.055Z,0
2022-11-13T05:28:28.727Z,0
2022-11-13T05:29:08.981Z,0
2022-11-13T05:35:53.904Z,0
2022-11-13T05:36:34.350Z,0
2022-11-13T05:37:14.832Z,0
2022-11-13T05:37:55.341Z,0
2022-11-13T05:38:35.796Z,0
2022-11-13T05:39:16.420Z,0
2022-11-13T05:39:56.764Z,0
2022-11-13T05:40:37.231Z,0
2022-11-13T05:41:17.686Z,0
2022-11-13T05:41:58.267Z,0
2022-11-13T05:42:38.718Z,0
2022-11-13T05:43:19.236Z,0
2022-11-13T05:50:04.109Z,0
2022-11-13T05:50:44.532Z,0
2022-11-13T05:51:25.053Z,0
2022-11-13T05:52:05.511Z,0
2022-11-13T05:52:45.970Z,0
2022-11-13T06:31:29.014Z,32
2022-11-13T06:32:09.319Z,32
2022-11-13T06:32:49.818Z,32
2022-11-13T06:33:30.290Z,36
2022-11-13T06:34:10.774Z,36
2022-11-13T06:34:51.327Z,44
2022-11-13T06:35:31.768Z,44
2022-11-13T06:36:12.222Z,48
2022-11-13T06:36:52.665Z,48
2022-11-13T06:37:34.787Z,56
2022-11-13T06:38:13.647Z,56
2022-11-13T06:45:38.929Z,100
2022-11-13T06:46:19.453Z,104
2022-11-13T06:47:00.031Z,108
2022-11-13T06:47:40.421Z,112
2022-11-13T06:48:20.867Z,124
2022-11-13T06:49:01.337Z,128
2022-11-13T06:49:41.836Z,132
2022-11-13T06:50:22.295Z,136
2022-11-13T06:51:02.778Z,144
2022-11-13T06:51:43.282Z,152
2022-11-13T06:52:23.774Z,160
2022-11-13T06:59:49.101Z,244
2022-11-13T07:00:33.748Z,252
2022-11-13T07:01:10.193Z,280
2022-11-13T07:01:50.586Z,332
2022-11-13T07:02:31.215Z,388
2022-11-13T07:03:11.612Z,432
2022-11-13T07:03:52.118Z,480
2022-11-13T07:04:32.585Z,488
2022-11-13T07:05:13.083Z,508
2022-11-13T07:05:53.556Z,532
2022-11-13T07:06:39.141Z,560
2022-11-13T07:13:19.042Z,732
2022-11-13T07:13:59.557Z,732
2022-11-13T07:14:40.023Z,744
2022-11-13T07:15:20.501Z,744
2022-11-13T07:16:03.228Z,776
2022-11-13T07:17:04.689Z,776
2022-11-13T07:17:22.151Z,768
2022-11-13T07:18:02.741Z,760
2022-11-13T07:18:43.103Z,760
2022-11-13T07:19:23.614Z,760
2022-11-13T07:20:04.066Z,752
2022-11-13T07:25:04.031Z,780
2022-11-13T07:25:44.485Z,748
2022-11-13T07:26:24.980Z,680
2022-11-13T07:27:05.439Z,620
2022-11-13T07:27:45.931Z,596
2022-11-13T07:28:26.749Z,596
2022-11-13T07:29:06.941Z,596
2022-11-13T07:29:47.416Z,604
2022-11-13T07:30:27.895Z,608
2022-11-13T07:31:08.341Z,616
2022-11-13T07:31:48.831Z,620
2022-11-13T07:39:14.135Z,676
2022-11-13T07:39:54.617Z,672
2022-11-13T07:40:35.120Z,668
2022-11-13T07:41:15.644Z,668
2022-11-13T07:41:56.145Z,672
2022-11-13T07:42:36.672Z,680
2022-11-13T07:43:57.608Z,708
2022-11-13T07:44:53.904Z,712
2022-11-13T07:45:18.603Z,716
2022-11-13T07:45:59.149Z,716
2022-11-13T07:52:44.135Z,764
2022-11-13T07:53:24.585Z,768
2022-11-13T07:54:05.052Z,768
2022-11-13T07:54:45.556Z,768
2022-11-13T07:55:26.077Z,772
2022-11-13T07:56:06.576Z,768
2022-11-13T07:56:47.039Z,776
2022-11-13T07:57:27.540Z,776
2022-11-13T07:58:08.112Z,780
2022-11-13T07:58:48.489Z,780
2022-11-13T07:59:29.017Z,780
2022-11-13T08:06:13.870Z,784
2022-11-13T08:06:54.372Z,780
2022-11-13T08:07:34.846Z,780
2022-11-13T08:08:15.341Z,776
2022-11-13T08:08:55.863Z,776
2022-11-13T08:09:36.392Z,776
2022-11-13T08:10:16.862Z,780
2022-11-13T08:10:57.388Z,776
2022-11-13T08:11:37.895Z,780
2022-11-13T08:12:18.367Z,780
2022-11-13T08:12:58.847Z,780
2022-11-13T08:15:26.906Z,768
2022-11-13T08:16:07.295Z,768
2022-11-13T08:16:47.762Z,768
2022-11-13T08:17:28.325Z,768
2022-11-13T08:18:08.780Z,772
2022-11-13T08:18:49.235Z,772
2022-11-13T08:19:29.842Z,776
2022-11-13T08:20:10.167Z,780
2022-11-13T08:20:50.648Z,780
2022-11-13T08:21:31.104Z,784
2022-11-13T08:22:11.583Z,784
2022-11-13T08:29:36.953Z,788
2022-11-13T08:30:17.347Z,788
2022-11-13T08:30:57.878Z,788
2022-11-13T08:31:38.372Z,792
2022-11-13T08:32:18.855Z,792
2022-11-13T08:32:59.322Z,792
2022-11-13T08:33:39.801Z,792
2022-11-13T08:34:20.264Z,792
2022-11-13T08:35:00.857Z,792
2022-11-13T08:35:41.222Z,792
2022-11-13T08:36:21.728Z,792
2022-11-13T08:43:06.701Z,788
2022-11-13T08:43:47.207Z,792
2022-11-13T08:44:27.688Z,792
2022-11-13T08:45:08.159Z,796
2022-11-13T08:45:48.606Z,796
2022-11-13T08:46:29.086Z,796
2022-11-13T08:47:09.625Z,792
2022-11-13T08:47:50.115Z,796
2022-11-13T08:48:30.991Z,796
2022-11-13T08:49:11.167Z,796
2022-11-13T08:49:51.675Z,796
2022-11-13T08:57:16.969Z,800
2022-11-13T08:57:57.483Z,804
2022-11-13T08:58:38.043Z,804
2022-11-13T08:59:18.490Z,800
2022-11-13T08:59:58.993Z,804
2022-11-13T09:00:39.475Z,804
2022-11-13T09:01:19.914Z,804
2022-11-13T09:02:00.379Z,804
2022-11-13T09:02:40.903Z,804
2022-11-13T09:03:21.397Z,804
2022-11-13T09:10:46.710Z,804
2022-11-13T09:11:27.204Z,804
2022-11-13T09:12:07.693Z,804
2022-11-13T09:12:48.186Z,804
2022-11-13T09:13:28.694Z,804
2022-11-13T09:14:09.156Z,804
2022-11-13T09:14:49.573Z,804
2022-11-13T09:15:30.074Z,808
2022-11-13T09:16:10.530Z,808
2022-11-13T09:16:50.989Z,808
2022-11-13T09:17:31.505Z,808
2022-11-13T09:24:56.975Z,812
2022-11-13T09:25:38.130Z,808
2022-11-13T09:26:17.958Z,808
2022-11-13T09:26:58.484Z,808
2022-11-13T09:27:38.925Z,808
2022-11-13T09:28:19.416Z,808
2022-11-13T09:28:59.927Z,808
2022-11-13T09:29:40.413Z,808
2022-11-13T09:30:20.923Z,808
2022-11-13T09:31:01.455Z,808
2022-11-13T09:38:27.014Z,812
2022-11-13T09:39:07.191Z,808
2022-11-13T09:39:47.693Z,808
2022-11-13T09:40:28.226Z,812
2022-11-13T09:41:08.708Z,808
2022-11-13T09:41:49.194Z,808
2022-11-13T09:42:29.706Z,808
2022-11-13T09:43:10.236Z,808
2022-11-13T09:43:53.053Z,808
2022-11-13T09:44:31.135Z,808
2022-11-13T09:45:11.660Z,808
2022-11-13T09:52:37.051Z,808
2022-11-13T09:53:17.443Z,808
2022-11-13T09:53:57.937Z,808
2022-11-13T09:54:38.407Z,808
2022-11-13T09:55:18.905Z,808
2022-11-13T09:55:59.401Z,808
2022-11-13T09:56:39.952Z,808
2022-11-13T09:57:24.674Z,808
2022-11-13T09:58:00.883Z,804
2022-11-13T09:58:41.354Z,804
2022-11-13T09:59:21.820Z,808
2022-11-13T10:06:06.654Z,804
2022-11-13T10:06:47.155Z,804
2022-11-13T10:07:27.618Z,804
2022-11-13T10:08:08.188Z,800
2022-11-13T10:08:48.534Z,804
2022-11-13T10:09:29.013Z,804
2022-11-13T10:10:09.512Z,804
2022-11-13T10:10:55.052Z,804
2022-11-13T10:11:30.510Z,808
2022-11-13T10:12:10.935Z,804
2022-11-13T10:12:51.496Z,804
2022-11-13T10:13:31.959Z,804
2022-11-13T10:20:16.809Z,800
2022-11-13T10:20:57.275Z,800
2022-11-13T10:21:37.767Z,804
2022-11-13T10:22:34.334Z,804
2022-11-13T10:22:58.685Z,804
2022-11-13T10:23:39.273Z,800
2022-11-13T10:24:19.593Z,800
2022-11-13T10:25:00.156Z,800
2022-11-13T10:25:40.591Z,800
2022-11-13T10:26:21.046Z,800
2022-11-13T10:27:01.657Z,796
2022-11-13T10:34:26.876Z,800
2022-11-13T10:35:07.369Z,796
2022-11-13T10:36:28.306Z,796
2022-11-13T10:37:08.787Z,804
2022-11-13T10:37:49.279Z,796
2022-11-13T10:38:29.772Z,796
2022-11-13T10:39:10.316Z,800
2022-11-13T10:39:50.672Z,800
2022-11-13T10:40:31.202Z,796
2022-11-13T10:41:11.675Z,796
2022-11-13T10:48:36.915Z,796
2022-11-13T10:49:17.451Z,796
2022-11-13T10:49:57.908Z,792
2022-11-13T10:50:38.430Z,796
2022-11-13T10:51:18.877Z,792
2022-11-13T10:52:00.263Z,792
2022-11-13T10:52:40.692Z,792
2022-11-13T10:53:21.165Z,796
2022-11-13T10:54:01.720Z,792
2022-11-13T11:00:46.710Z,792
2022-11-13T11:01:27.181Z,792
2022-11-13T11:02:07.691Z,788
2022-11-13T11:02:48.157Z,784
2022-11-13T11:03:28.618Z,788
2022-11-13T11:04:09.106Z,788
2022-11-13T11:04:49.589Z,788
2022-11-13T11:05:30.091Z,784
2022-11-13T11:06:10.520Z,788
2022-11-13T11:07:19.452Z,784
2022-11-13T11:07:31.503Z,784
2022-11-13T11:14:56.739Z,780
2022-11-13T11:15:37.229Z,784
2022-11-13T11:16:17.687Z,780
2022-11-13T11:16:58.135Z,780
2022-11-13T11:17:38.622Z,780
2022-11-13T11:18:19.087Z,776
2022-11-13T11:18:59.592Z,776
2022-11-13T11:22:13.629Z,776
2022-11-13T11:22:53.771Z,772
2022-11-13T11:23:34.225Z,772
2022-11-13T11:24:14.718Z,772
2022-11-13T11:24:55.244Z,776
2022-11-13T11:25:35.793Z,776
2022-11-13T11:26:16.188Z,772
2022-11-13T11:26:56.616Z,772
2022-11-13T11:27:37.067Z,772
2022-11-13T11:28:17.584Z,772
2022-11-13T11:28:58.030Z,772
2022-11-13T11:36:23.273Z,764
2022-11-13T11:37:03.827Z,764
2022-11-13T11:37:44.221Z,764
2022-11-13T11:38:24.744Z,768
2022-11-13T11:39:05.190Z,764
2022-11-13T11:39:45.669Z,764
2022-11-13T11:40:26.185Z,768
2022-11-13T11:41:07.170Z,760
2022-11-13T11:41:47.105Z,768
2022-11-13T11:43:08.102Z,764
2022-11-13T11:50:33.362Z,756
2022-11-13T11:51:13.861Z,756
2022-11-13T11:51:54.408Z,756
2022-11-13T11:52:34.840Z,756
2022-11-13T11:53:15.285Z,760
2022-11-13T12:32:40.468Z,736
2022-11-13T12:33:20.834Z,736
2022-11-13T12:34:01.845Z,736
2022-11-13T12:34:41.709Z,736
2022-11-13T12:35:22.192Z,736
2022-11-13T12:36:02.663Z,732
2022-11-13T12:36:43.195Z,732
2022-11-13T12:37:23.622Z,732
2022-11-13T12:38:04.110Z,728
2022-11-13T12:38:44.591Z,732
2022-11-13T12:39:25.069Z,728
2022-11-13T12:46:50.276Z,720
2022-11-13T12:47:30.753Z,716
2022-11-13T12:48:11.376Z,716
2022-11-13T12:48:51.709Z,712
2022-11-13T12:50:12.675Z,712
2022-11-13T12:50:53.149Z,708
2022-11-13T12:51:33.640Z,704
2022-11-13T12:52:14.150Z,708
2022-11-13T12:52:54.636Z,700
2022-11-13T12:53:35.133Z,700
2022-11-13T13:01:00.412Z,668
2022-11-13T13:01:40.878Z,664
2022-11-13T13:02:21.311Z,656
2022-11-13T13:03:01.790Z,652
2022-11-13T13:03:42.379Z,648
2022-11-13T13:04:22.763Z,644
2022-11-13T13:05:03.273Z,636
2022-11-13T13:05:44.323Z,628
2022-11-13T13:06:24.178Z,624
2022-11-13T13:07:04.641Z,616
2022-11-13T13:07:45.142Z,608
2022-11-13T13:15:10.572Z,540
2022-11-13T13:15:51.054Z,544
2022-11-13T13:16:31.541Z,536
2022-11-13T13:17:12.054Z,536
2022-11-13T13:17:52.521Z,532
2022-11-13T13:18:33.209Z,532
2022-11-13T13:19:13.602Z,528
2022-11-13T13:19:53.995Z,528
2022-11-13T13:20:34.432Z,524
2022-11-13T13:21:14.939Z,528
2022-11-13T13:21:55.423Z,528
2022-11-13T13:28:40.202Z,520
2022-11-13T13:29:20.644Z,520
2022-11-13T13:30:01.161Z,524
2022-11-13T13:30:42.335Z,520
2022-11-13T13:31:22.125Z,520
2022-11-13T13:32:03.295Z,524
2022-11-13T13:32:43.132Z,524
2022-11-13T13:33:23.562Z,516
2022-11-13T13:34:04.081Z,516
2022-11-13T13:34:44.633Z,516
2022-11-13T13:35:25.001Z,512
2022-11-13T13:42:50.308Z,504
2022-11-13T13:43:30.801Z,504
2022-11-13T13:44:11.270Z,504
2022-11-13T13:44:51.786Z,504
2022-11-13T13:45:32.238Z,504
2022-11-13T13:46:12.728Z,508
2022-11-13T13:46:53.208Z,504
2022-11-13T13:47:33.663Z,508
2022-11-13T13:48:54.655Z,508
2022-11-13T13:49:35.122Z,508
2022-11-13T13:57:00.461Z,508
2022-11-13T13:57:40.917Z,512
2022-11-13T13:58:21.424Z,508
2022-11-13T13:59:01.916Z,508
2022-11-13T13:59:42.391Z,508
2022-11-13T14:00:22.923Z,508
2022-11-13T14:01:20.121Z,512
2022-11-13T14:01:43.876Z,520
2022-11-13T14:02:24.353Z,520
2022-11-13T14:05:39.131Z,512
2022-11-13T14:06:19.363Z,508
2022-11-13T14:06:59.860Z,504
2022-11-13T14:07:40.305Z,500
2022-11-13T14:08:20.837Z,504
2022-11-13T14:09:01.283Z,508
2022-11-13T14:09:41.777Z,508
2022-11-13T14:10:22.285Z,508
2022-11-13T14:11:02.771Z,508
2022-11-13T14:11:43.265Z,504
2022-11-13T14:12:23.755Z,496
2022-11-13T14:15:42.325Z,488
2022-11-13T14:16:22.790Z,488
2022-11-13T14:17:03.299Z,488
2022-11-13T14:17:44.739Z,492
2022-11-13T14:18:24.243Z,492
2022-11-13T14:19:04.756Z,496
2022-11-13T14:19:45.213Z,492
2022-11-13T14:20:25.691Z,488
2022-11-13T14:21:06.298Z,488
2022-11-13T14:21:46.656Z,484
2022-11-13T14:22:27.173Z,480
2022-11-13T14:29:12.050Z,476
2022-11-13T14:29:52.540Z,472
2022-11-13T14:30:32.987Z,472
2022-11-13T14:31:13.493Z,472
2022-11-13T14:31:53.928Z,480
2022-11-13T14:32:34.439Z,480
2022-11-13T14:33:14.923Z,484
2022-11-13T14:33:55.429Z,484
2022-11-13T14:34:35.855Z,492
2022-11-13T14:35:16.399Z,500
2022-11-13T14:35:56.887Z,504
2022-11-13T14:43:22.175Z,720
2022-11-13T14:44:02.720Z,736
2022-11-13T14:44:43.221Z,780
2022-11-13T14:45:23.678Z,824
2022-11-13T14:46:04.138Z,868
2022-11-13T14:46:44.600Z,892
2022-11-13T14:47:25.090Z,932
2022-11-13T14:48:05.544Z,968
2022-11-13T14:48:46.037Z,1012
2022-11-13T14:49:26.502Z,1048
2022-11-13T14:50:06.945Z,1080
2022-11-13T14:57:32.498Z,1652
2022-11-13T14:58:12.991Z,1688
2022-11-13T14:58:53.504Z,1716
2022-11-13T14:59:33.948Z,1736
2022-11-13T15:00:14.409Z,1740
2022-11-13T15:00:54.926Z,1752
2022-11-13T15:01:35.404Z,1748
2022-11-13T15:02:15.885Z,1752
2022-11-13T15:02:56.445Z,1756
2022-11-13T15:03:36.900Z,1772
2022-11-13T15:04:17.370Z,1776
2022-11-13T15:11:02.308Z,1472
2022-11-13T15:11:42.825Z,1448
2022-11-13T15:12:23.395Z,1400
2022-11-13T15:13:03.883Z,1348
2022-11-13T15:13:44.374Z,1300
2022-11-13T15:14:24.916Z,1236
2022-11-13T15:15:05.363Z,1188
2022-11-13T15:15:45.887Z,1132
2022-11-13T15:16:26.359Z,1068
2022-11-13T15:17:06.892Z,1004
2022-11-13T15:17:47.324Z,964
2022-11-13T15:24:32.415Z,588
2022-11-13T15:25:12.893Z,576
2022-11-13T15:25:53.371Z,548
2022-11-13T15:26:33.892Z,512
2022-11-13T15:27:14.366Z,532
2022-11-13T15:27:54.909Z,628
2022-11-13T15:28:35.379Z,736
2022-11-13T15:29:15.892Z,724
2022-11-13T15:29:56.377Z,680
2022-11-13T15:30:36.866Z,576
2022-11-13T15:31:17.365Z,480
2022-11-13T15:38:02.217Z,192
2022-11-13T15:38:42.847Z,180
2022-11-13T15:39:24.159Z,168
2022-11-13T15:40:03.673Z,152
2022-11-13T15:40:44.162Z,136
2022-11-13T15:42:05.137Z,112
2022-11-13T15:42:45.618Z,96
2022-11-13T15:43:26.385Z,92
2022-11-13T15:44:06.570Z,84
2022-11-13T15:44:47.067Z,76
2022-11-13T15:52:12.380Z,40
2022-11-13T15:52:52.857Z,36
2022-11-13T15:53:33.357Z,32
2022-11-13T15:54:13.966Z,32
2022-11-13T15:54:54.303Z,28
2022-11-13T15:58:09.022Z,20
2022-11-13T15:58:49.474Z,16
2022-11-13T15:59:29.957Z,16
2022-11-13T16:00:10.449Z,12
2022-11-13T16:00:50.852Z,12
2022-11-13T16:02:11.889Z,12
2022-11-13T16:02:52.403Z,8
2022-11-13T16:03:32.835Z,8
2022-11-13T16:04:13.387Z,4
2022-11-13T16:04:57.414Z,8
2022-11-13T16:12:19.191Z,0
2022-11-13T16:12:59.688Z,0
2022-11-13T16:13:40.141Z,0
2022-11-13T16:14:24.472Z,4
2022-11-13T16:17:34.271Z,0
2022-11-13T16:18:14.761Z,0
2022-11-13T16:18:59.932Z,0
2022-11-13T16:19:35.770Z,0
2022-11-13T16:20:16.181Z,0
2022-11-13T16:20:56.676Z,0
2022-11-13T16:21:37.156Z,0
2022-11-13T16:22:17.662Z,0
2022-11-13T16:22:58.189Z,0
2022-11-13T16:23:38.673Z,0
2022-11-13T16:24:22.829Z,0
2022-11-13T16:31:04.119Z,0
2022-11-13T16:31:44.575Z,0
2022-11-13T16:32:25.049Z,0
2022-11-13T16:33:05.502Z,0
2022-11-13T16:33:45.997Z,0
2022-11-13T16:34:26.479Z,0
2022-11-13T16:35:07.013Z,0
2022-11-13T16:35:47.460Z,0
2022-11-13T16:36:27.913Z,0
2022-11-13T16:37:08.418Z,0
2022-11-13T16:40:22.172Z,0
2022-11-13T16:41:02.473Z,0
2022-11-13T16:41:42.942Z,0
2022-11-13T16:42:26.016Z,0
2022-11-13T16:43:03.849Z,0
2022-11-13T16:43:44.577Z,0
2022-11-13T16:44:24.895Z,0
2022-11-13T16:45:05.405Z,0
2022-11-13T16:45:45.872Z,0
2022-11-13T16:46:26.361Z,0
2022-11-13T16:47:06.831Z,0
2022-11-13T16:54:32.208Z,0
2022-11-13T16:55:12.736Z,0
2022-11-13T16:55:53.338Z,0
2022-11-13T16:56:33.715Z,0
2022-11-13T16:57:14.206Z,0
2022-11-13T16:57:54.733Z,0
2022-11-13T16:58:35.225Z,0
2022-11-13T16:59:15.671Z,0
2022-11-13T16:59:56.115Z,0
2022-11-13T17:00:36.568Z,0
2022-11-13T17:01:17.140Z,0
2022-11-13T17:08:01.940Z,0
2022-11-13T17:08:42.447Z,0
2022-11-13T17:09:22.907Z,0
2022-11-13T17:10:29.486Z,0
2022-11-13T17:10:43.960Z,0
2022-11-13T17:11:24.612Z,0
2022-11-13T17:12:04.990Z,0
2022-11-13T17:12:45.552Z,0
2022-11-13T17:13:26.100Z,0
2022-11-13T17:14:06.443Z,0
2022-11-13T17:22:12.250Z,0
2022-11-13T17:22:52.747Z,0
2022-11-13T17:26:06.787Z,0
2022-11-13T17:26:47.421Z,0
2022-11-13T17:27:29.367Z,0
2022-11-13T17:28:09.140Z,0
2022-11-13T17:28:49.675Z,0
2022-11-13T17:29:30.092Z,0
2022-11-13T17:30:10.609Z,0
2022-11-13T17:30:53.821Z,0
2022-11-13T17:31:31.539Z,0
2022-11-13T17:38:56.814Z,0
2022-11-13T17:39:37.319Z,0
2022-11-13T17:40:17.853Z,0
2022-11-13T17:40:58.285Z,0
2022-11-13T17:41:38.770Z,0
2022-11-13T17:42:19.372Z,0
2022-11-13T17:42:59.768Z,0
2022-11-13T17:43:40.218Z,0
2022-11-13T17:44:20.664Z,0
2022-11-13T17:45:01.212Z,0
2022-11-13T17:45:41.685Z,0
2022-11-13T17:52:26.607Z,0
2022-11-13T17:53:07.101Z,0
2022-11-13T18:34:40.243Z,0
2022-11-13T18:35:20.671Z,0
2022-11-13T18:36:01.125Z,0
2022-11-13T18:36:41.618Z,0
2022-11-13T18:37:22.087Z,0
2022-11-13T18:38:02.571Z,0
2022-11-13T18:38:43.079Z,0
2022-11-13T18:39:23.519Z,0
2022-11-13T18:40:04.031Z,0
2022-11-13T18:40:44.491Z,0
2022-11-13T18:41:25.042Z,0
2022-11-13T18:48:50.302Z,0
2022-11-13T18:49:30.807Z,0
2022-11-13T18:50:11.385Z,0
2022-11-13T18:50:51.730Z,0
2022-11-13T18:51:32.207Z,0
2022-11-13T18:52:12.703Z,0
2022-11-13T18:52:53.179Z,0
2022-11-13T18:53:33.706Z,0
2022-11-13T18:54:14.187Z,0
2022-11-13T18:54:54.648Z,0
2022-11-13T18:55:35.099Z,0
2022-11-13T18:59:54.567Z,0
2022-11-13T19:00:35.077Z,0
2022-11-13T19:01:20.655Z,0
2022-11-13T19:01:56.133Z,0
2022-11-13T19:02:36.520Z,0
2022-11-13T19:03:17.069Z,0
2022-11-13T19:04:38.077Z,0
2022-11-13T19:05:18.673Z,0
2022-11-13T19:05:59.038Z,0
2022-11-13T19:14:04.714Z,0
2022-11-13T19:14:45.190Z,0
2022-11-13T19:15:25.722Z,0
2022-11-13T19:16:06.154Z,0
2022-11-13T19:16:46.636Z,0
2022-11-13T19:17:27.124Z,0
2022-11-13T19:18:07.596Z,0
2022-11-13T19:18:48.096Z,0
2022-11-13T19:19:28.533Z,0
2022-11-13T19:20:09.010Z,0
2022-11-13T19:20:49.592Z,0
2022-11-13T19:28:14.733Z,0
2022-11-13T19:28:55.227Z,0
2022-11-13T19:29:35.679Z,0
2022-11-13T19:30:16.194Z,0
2022-11-13T19:30:56.647Z,0
2022-11-13T19:31:37.178Z,0
2022-11-13T19:32:17.728Z,0
2022-11-13T19:32:58.197Z,0
2022-11-13T19:33:38.608Z,0
2022-11-13T19:34:19.068Z,0
2022-11-13T19:34:59.589Z,0
2022-11-13T19:42:24.771Z,0
2022-11-13T19:43:05.299Z,0
2022-11-13T19:43:45.801Z,0
2022-11-13T19:44:26.271Z,0
2022-11-13T19:45:06.731Z,0
2022-11-13T19:45:47.255Z,0
2022-11-13T19:46:27.684Z,0
2022-11-13T19:47:08.170Z,0
2022-11-13T19:47:48.647Z,0
2022-11-13T19:48:29.272Z,0
2022-11-13T19:49:09.609Z,0
2022-11-13T19:55:54.417Z,0
2022-11-13T19:56:34.964Z,0
2022-11-13T19:57:15.466Z,0
2022-11-13T19:57:55.935Z,0
2022-11-13T19:58:36.471Z,0
2022-11-13T19:59:16.927Z,0
2022-11-13T19:59:57.418Z,0
2022-11-13T20:00:37.906Z,0
2022-11-13T20:01:18.387Z,0
2022-11-13T20:02:39.925Z,0
2022-11-13T20:08:44.376Z,0
2022-11-13T20:09:24.775Z,0
2022-11-13T20:10:05.262Z,0
2022-11-13T20:10:45.749Z,0
2022-11-13T20:11:26.236Z,0
2022-11-13T20:12:06.735Z,0
2022-11-13T20:12:47.206Z,0